Time;durP1;ratioP1;P1;durP2;ratioP2;P2;SDS_P1;SDS_P2;PMS_P1;PMS_P2;Temp;Humidity;BMP_temperature;BMP_pressure;BME280_temperature;BME280_humidity;BME280_pressure;Samples;Min_cycle;Max_cycle;Signal;HPM_P1;HPM_P2
2024/02/09 00:00:02;;;;;;;2.10;1.70;;;24.10;56.00;;;;;;5014791;28;20930;-85
2024/02/09 00:02:31;;;;;;;2.73;1.80;;;24.10;56.00;;;;;;5012985;28;20842;-86
2024/02/09 00:04:57;;;;;;;2.20;1.60;;;24.10;56.00;;;;;;5013441;28;20439;-85
2024/02/09 00:07:24;;;;;;;2.63;1.40;;;24.00;56.00;;;;;;5013522;28;20807;-85
2024/02/09 00:09:51;;;;;;;3.23;1.87;;;24.00;56.00;;;;;;5014329;28;20962;-86
2024/02/09 00:12:20;;;;;;;2.37;1.83;;;24.00;56.00;;;;;;5014369;28;20432;-85
2024/02/09 00:14:47;;;;;;;2.23;1.37;;;24.00;56.00;;;;;;5014251;28;20435;-86
2024/02/09 00:17:14;;;;;;;2.20;1.57;;;24.00;56.00;;;;;;5014050;28;20435;-86
2024/02/09 00:19:41;;;;;;;2.00;1.43;;;24.00;56.00;;;;;;5014164;28;20483;-86
2024/02/09 00:22:10;;;;;;;2.57;1.50;;;24.00;56.00;;;;;;5013652;28;20449;-86
2024/02/09 00:24:37;;;;;;;2.00;1.40;;;24.00;56.10;;;;;;5014392;28;20460;-85
2024/02/09 00:27:04;;;;;;;4.47;1.90;;;24.00;56.10;;;;;;5014128;28;20443;-86
2024/02/09 00:29:32;;;;;;;2.17;1.30;;;24.00;56.10;;;;;;5013948;28;20435;-85
2024/02/09 00:31:59;;;;;;;2.87;2.10;;;24.00;56.10;;;;;;5014331;28;20441;-86
2024/02/09 00:34:26;;;;;;;2.87;1.70;;;23.90;56.00;;;;;;5013764;28;20478;-86
2024/02/09 00:36:55;;;;;;;3.20;1.93;;;24.00;56.20;;;;;;5013928;28;20470;-86
2024/02/09 00:39:22;;;;;;;2.37;1.67;;;23.90;56.10;;;;;;5013983;28;20505;-86
2024/02/09 00:41:51;;;;;;;4.00;1.83;;;24.00;56.20;;;;;;5014245;28;20439;-85
2024/02/09 00:44:18;;;;;;;1.70;1.10;;;23.90;56.10;;;;;;5013942;28;20539;-86
2024/02/09 00:46:46;;;;;;;2.93;1.57;;;24.00;56.20;;;;;;5013814;28;20439;-85
2024/02/09 00:49:13;;;;;;;3.93;1.57;;;23.80;56.00;;;;;;5013689;28;20443;-86
2024/02/09 00:51:40;;;;;;;2.27;1.97;;;24.00;56.20;;;;;;5013607;28;20522;-85
2024/02/09 00:54:08;;;;;;;2.73;1.53;;;23.90;56.10;;;;;;5013964;28;20439;-86
2024/02/09 00:56:37;;;;;;;1.80;1.30;;;23.80;56.10;;;;;;5013527;28;20461;-85
2024/02/09 00:59:03;;;;;;;2.20;1.60;;;23.80;56.10;;;;;;5013591;28;20569;-85
2024/02/09 01:01:32;;;;;;;2.43;1.90;;;23.90;56.20;;;;;;5013770;28;20471;-84
2024/02/09 01:04:01;;;;;;;2.80;1.73;;;23.80;56.20;;;;;;5013987;28;20461;-86
2024/02/09 01:06:28;;;;;;;2.00;1.50;;;23.90;56.20;;;;;;5013747;28;20746;-85
2024/02/09 01:08:54;;;;;;;3.33;1.53;;;23.80;56.20;;;;;;5013707;28;20966;-85
2024/02/09 01:11:21;;;;;;;2.70;1.63;;;23.80;56.20;;;;;;5013771;28;20949;-84
2024/02/09 02:46:36;;;;;;;2.13;1.10;;;23.80;56.20;;;;;;5014739;28;20531;-86
2024/02/09 03:05:34;;;;;;;2.40;1.47;;;23.80;56.20;;;;;;5015692;28;20434;-85
2024/02/09 03:08:02;;;;;;;2.00;1.40;;;23.80;56.20;;;;;;5015440;28;20486;-85
2024/02/09 03:10:29;;;;;;;2.20;1.53;;;23.80;56.20;;;;;;5032800;28;20443;-85
2024/02/09 03:12:57;;;;;;;1.73;1.10;;;23.80;56.20;;;;;;5032467;28;20447;-86
2024/02/09 03:15:24;;;;;;;2.00;1.37;;;23.80;56.20;;;;;;5032489;28;20483;-84
2024/02/09 03:17:53;;;;;;;1.90;1.10;;;23.80;56.20;;;;;;5017736;28;20450;-84
2024/02/09 03:20:24;;;;;;;1.80;1.10;;;23.80;56.20;;;;;;5015198;28;20479;-85
2024/02/09 03:22:51;;;;;;;1.93;1.00;;;23.80;56.20;;;;;;5015621;28;20466;-85
2024/02/09 03:25:21;;;;;;;1.70;1.10;;;23.80;56.20;;;;;;5014856;28;20950;-84
2024/02/09 03:27:47;;;;;;;1.90;1.10;;;23.80;56.20;;;;;;5015076;28;20566;-84
2024/02/09 03:30:16;;;;;;;1.60;1.20;;;23.80;56.20;;;;;;5015143;28;20465;-85
2024/02/09 03:32:45;;;;;;;2.23;1.00;;;23.80;56.20;;;;;;5014991;28;20444;-85
2024/02/09 03:35:13;;;;;;;4.13;1.60;;;23.80;56.20;;;;;;5014785;28;20443;-85
2024/02/09 03:37:44;;;;;;;2.00;1.30;;;23.80;56.20;;;;;;5014848;28;20435;-85
2024/02/09 03:40:13;;;;;;;1.70;1.23;;;23.80;56.20;;;;;;5014697;28;20486;-85
2024/02/09 03:42:41;;;;;;;2.23;1.23;;;23.80;56.20;;;;;;5014656;28;20526;-85
2024/02/09 03:45:08;;;;;;;2.50;1.20;;;23.80;56.20;;;;;;5014726;28;20447;-85
2024/02/09 03:47:36;;;;;;;2.53;1.77;;;23.80;56.20;;;;;;5014743;28;20471;-85
2024/02/09 03:50:05;;;;;;;3.20;1.00;;;23.80;56.10;;;;;;5014351;28;20443;-85
2024/02/09 03:52:31;;;;;;;1.83;1.13;;;23.80;56.20;;;;;;5014489;28;20940;-85
2024/02/09 03:54:58;;;;;;;2.20;1.23;;;23.80;56.20;;;;;;5014749;28;20823;-85
2024/02/09 03:57:27;;;;;;;1.97;1.20;;;23.80;56.10;;;;;;5014369;28;20818;-84
2024/02/09 03:59:55;;;;;;;2.00;1.70;;;23.80;56.10;;;;;;5014517;28;20497;-84
2024/02/09 04:02:23;;;;;;;2.37;1.10;;;23.80;56.10;;;;;;5014425;28;20471;-84
2024/02/09 04:04:51;;;;;;;2.03;1.20;;;23.80;56.10;;;;;;5014333;28;20950;-84
2024/02/09 04:07:20;;;;;;;2.57;1.50;;;23.80;56.10;;;;;;5014294;28;20439;-88
2024/02/09 04:09:48;;;;;;;2.00;1.30;;;23.80;56.20;;;;;;5014733;28;20543;-85
2024/02/09 04:12:15;;;;;;;2.00;1.10;;;23.80;56.10;;;;;;5014562;28;20450;-85
2024/02/09 04:14:42;;;;;;;2.00;1.30;;;23.80;56.10;;;;;;5014443;28;20447;-84
2024/02/09 04:17:08;;;;;;;2.50;1.07;;;23.90;56.10;;;;;;5014552;28;20538;-84
2024/02/09 04:19:38;;;;;;;1.83;0.97;;;23.80;56.10;;;;;;5014384;28;20487;-90
2024/02/09 04:22:08;;;;;;;2.60;1.47;;;23.80;56.10;;;;;;5014063;28;20954;-84
2024/02/09 04:24:36;;;;;;;1.90;0.97;;;23.80;56.10;;;;;;5014166;28;20444;-85
2024/02/09 04:27:04;;;;;;;2.57;1.17;;;23.90;56.20;;;;;;5025008;28;20470;-83
2024/02/09 04:29:32;;;;;;;1.70;1.00;;;23.80;56.20;;;;;;5037086;28;20944;-84
2024/02/09 04:32:00;;;;;;;2.73;1.77;;;23.80;56.10;;;;;;5031935;28;20454;-84
2024/02/09 04:34:27;;;;;;;2.13;1.30;;;23.80;56.20;;;;;;5031840;28;20509;-84
2024/02/09 04:36:56;;;;;;;3.20;1.23;;;23.80;56.20;;;;;;5032761;28;20434;-85
2024/02/09 04:39:24;;;;;;;2.57;1.33;;;23.80;56.20;;;;;;5032344;28;20501;-85
2024/02/09 04:41:51;;;;;;;3.60;1.53;;;23.80;56.20;;;;;;5033570;28;20434;-86
2024/02/09 04:44:20;;;;;;;1.60;0.93;;;23.80;56.20;;;;;;5033364;28;20549;-84
2024/02/09 04:46:47;;;;;;;2.10;1.47;;;23.80;56.30;;;;;;5033522;28;20431;-84
2024/02/09 04:49:14;;;;;;;1.97;1.40;;;23.80;56.20;;;;;;5033667;28;20437;-84
2024/02/09 04:51:41;;;;;;;2.50;1.20;;;23.80;56.20;;;;;;5033305;28;20496;-84
2024/02/09 04:54:08;;;;;;;2.03;0.97;;;23.80;56.20;;;;;;5033468;28;20541;-84
2024/02/09 04:56:37;;;;;;;2.30;1.13;;;23.80;56.20;;;;;;5033567;28;20434;-84
2024/02/09 04:59:07;;;;;;;1.60;0.97;;;23.80;56.20;;;;;;5033221;28;20585;-84
2024/02/09 05:01:37;;;;;;;2.07;1.03;;;23.80;56.20;;;;;;5032970;28;20485;-84
2024/02/09 05:04:06;;;;;;;2.17;1.47;;;23.80;56.20;;;;;;5033426;28;20465;-85
2024/02/09 05:06:33;;;;;;;1.97;1.10;;;23.80;56.20;;;;;;5033635;28;20430;-84
2024/02/09 05:09:01;;;;;;;2.00;1.10;;;23.80;56.20;;;;;;5034212;28;20458;-85
2024/02/09 05:11:29;;;;;;;1.60;1.10;;;23.80;56.20;;;;;;5037543;28;20521;-84
2024/02/09 05:13:57;;;;;;;1.77;1.20;;;23.90;56.20;;;;;;5037089;28;20524;-84
2024/02/09 05:16:24;;;;;;;1.73;1.20;;;23.90;56.10;;;;;;5037249;28;20452;-85
2024/02/09 05:18:52;;;;;;;1.50;1.00;;;23.90;56.10;;;;;;5037138;28;20430;-85
2024/02/09 05:21:18;;;;;;;1.70;1.10;;;23.90;56.10;;;;;;5037482;28;20464;-84
2024/02/09 05:23:45;;;;;;;1.60;0.93;;;23.90;56.10;;;;;;5037077;28;20434;-84
2024/02/09 05:26:13;;;;;;;1.80;1.00;;;23.90;56.10;;;;;;5037214;28;20441;-84
2024/02/09 05:28:42;;;;;;;2.43;1.30;;;23.90;56.10;;;;;;5037253;28;20911;-85
2024/02/09 05:31:15;;;;;;;3.10;1.00;;;23.90;56.00;;;;;;5037231;28;20450;-84
2024/02/09 05:33:42;;;;;;;1.70;0.90;;;24.00;56.30;;;;;;5037000;28;20521;-84
2024/02/09 05:36:19;;;;;;;1.60;1.00;;;24.10;56.10;;;;;;5037911;28;20443;-84
2024/02/09 05:38:45;;;;;;;1.93;1.07;;;24.00;56.00;;;;;;5038563;28;20457;-84
2024/02/09 05:41:12;;;;;;;1.80;1.13;;;24.00;56.10;;;;;;5038536;28;20871;-84
2024/02/09 05:43:39;;;;;;;2.13;1.27;;;24.00;56.00;;;;;;5037487;28;20434;-84
2024/02/09 05:46:06;;;;;;;2.37;1.10;;;24.10;56.10;;;;;;5037049;28;20923;-84
2024/02/09 05:48:35;;;;;;;1.50;0.93;;;24.00;56.00;;;;;;5038040;28;20453;-84
2024/02/09 05:51:02;;;;;;;1.70;1.10;;;24.00;56.00;;;;;;5039420;28;20446;-85
2024/02/09 05:53:29;;;;;;;1.80;1.33;;;24.00;56.00;;;;;;5037551;28;20434;-84
2024/02/09 05:55:56;;;;;;;2.30;1.07;;;24.00;56.00;;;;;;5046369;28;20422;-84
2024/02/09 05:58:23;;;;;;;1.70;0.93;;;24.00;55.90;;;;;;5050489;28;20517;-85
2024/02/09 06:00:52;;;;;;;1.80;1.00;;;24.00;56.00;;;;;;5048495;28;20493;-85
2024/02/09 06:03:18;;;;;;;3.00;1.10;;;24.00;56.00;;;;;;5036296;28;20801;-84
2024/02/09 06:05:48;;;;;;;2.10;1.20;;;24.00;56.00;;;;;;5036307;28;20434;-84
2024/02/09 06:08:14;;;;;;;3.80;1.17;;;24.00;56.00;;;;;;5035847;28;21026;-84
2024/02/09 06:10:41;;;;;;;2.00;1.20;;;24.00;56.00;;;;;;5036073;28;20449;-85
2024/02/09 06:13:08;;;;;;;1.90;1.00;;;24.00;56.10;;;;;;5036028;28;20442;-84
2024/02/09 06:15:36;;;;;;;1.80;1.00;;;24.00;56.00;;;;;;5036040;28;20444;-84
2024/02/09 06:18:04;;;;;;;1.80;1.20;;;24.00;56.10;;;;;;5036029;28;20442;-84
2024/02/09 06:20:33;;;;;;;1.53;0.90;;;24.00;56.00;;;;;;5034455;28;20500;-85
2024/02/09 06:23:02;;;;;;;2.23;1.23;;;24.00;56.00;;;;;;5036001;28;20504;-85
2024/02/09 06:25:30;;;;;;;1.80;1.00;;;24.00;56.00;;;;;;5035775;28;20440;-85
2024/02/09 06:27:56;;;;;;;2.07;1.00;;;24.00;56.00;;;;;;5035751;28;20504;-90
2024/02/09 06:30:23;;;;;;;1.77;0.90;;;24.10;56.10;;;;;;5036568;28;20484;-89
2024/02/09 06:32:51;;;;;;;1.83;0.80;;;24.00;56.00;;;;;;5046108;28;20743;-85
2024/02/09 06:35:18;;;;;;;1.50;1.00;;;24.00;56.00;;;;;;5035954;28;20438;-85
2024/02/09 06:37:45;;;;;;;1.67;1.00;;;24.00;56.00;;;;;;5035761;28;20529;-84
2024/02/09 06:40:14;;;;;;;1.90;1.00;;;24.00;56.00;;;;;;5035636;28;20502;-85
2024/02/09 06:42:43;;;;;;;1.70;1.17;;;24.00;56.00;;;;;;5036061;28;20496;-85
2024/02/09 06:45:10;;;;;;;1.50;1.00;;;24.00;56.00;;;;;;5035674;28;20499;-85
2024/02/09 06:47:38;;;;;;;1.90;1.00;;;24.00;55.90;;;;;;5035589;28;20431;-85
2024/02/09 06:50:06;;;;;;;1.50;1.00;;;24.00;55.90;;;;;;5035504;28;20778;-84
2024/02/09 06:52:33;;;;;;;1.70;1.10;;;24.00;55.90;;;;;;5035628;28;20513;-85
2024/02/09 06:55:00;;;;;;;1.90;1.10;;;24.00;55.90;;;;;;5035541;28;20525;-86
2024/02/09 06:57:28;;;;;;;1.70;0.90;;;24.10;56.00;;;;;;5036036;28;20439;-86
2024/02/09 06:59:55;;;;;;;2.13;1.00;;;24.10;56.00;;;;;;5035703;28;20494;-87
2024/02/09 07:02:22;;;;;;;1.70;1.10;;;24.10;56.00;;;;;;5041294;28;20572;-84
2024/02/09 07:05:00;;;;;;;1.60;0.90;;;24.10;56.00;;;;;;5036349;28;20451;-89
2024/02/09 07:07:28;;;;;;;1.90;0.90;;;24.00;56.00;;;;;;5035796;28;20434;-84
2024/02/09 07:09:56;;;;;;;1.60;1.00;;;24.00;56.00;;;;;;5037435;28;20526;-84
2024/02/09 07:12:22;;;;;;;2.03;0.90;;;24.10;56.10;;;;;;5035918;28;20449;-89
2024/02/09 07:14:50;;;;;;;1.53;0.90;;;24.10;56.10;;;;;;5035210;28;20434;-90
2024/02/09 07:17:17;;;;;;;3.43;1.23;;;24.10;56.10;;;;;;5035037;28;20956;-84
2024/02/09 07:19:44;;;;;;;4.20;1.00;;;24.10;56.10;;;;;;5034986;28;20996;-83
2024/02/09 07:22:12;;;;;;;2.27;1.33;;;24.10;56.10;;;;;;5035305;28;20504;-85
2024/02/09 07:24:39;;;;;;;1.50;1.00;;;24.10;56.10;;;;;;5034987;28;20438;-84
2024/02/09 07:27:06;;;;;;;1.73;0.80;;;24.10;56.10;;;;;;5034808;28;20963;-84
2024/02/09 07:29:32;;;;;;;2.47;1.20;;;24.20;56.80;;;;;;5035027;28;20436;-85
2024/02/09 07:32:00;;;;;;;1.80;0.90;;;24.10;56.20;;;;;;5034837;28;20517;-85
2024/02/09 07:34:27;;;;;;;1.83;0.90;;;24.10;56.10;;;;;;5035445;28;20442;-86
2024/02/09 07:36:55;;;;;;;1.73;1.00;;;24.20;56.20;;;;;;5034646;28;20445;-85
2024/02/09 07:39:22;;;;;;;2.67;1.53;;;24.20;56.30;;;;;;5034757;28;20462;-91
2024/02/09 07:41:49;;;;;;;2.27;0.90;;;24.10;56.20;;;;;;5034939;28;20822;-86
2024/02/09 07:44:16;;;;;;;3.60;1.70;;;24.10;56.30;;;;;;5034813;28;20449;-86
2024/02/09 07:46:44;;;;;;;1.80;0.97;;;24.10;56.30;;;;;;5035520;28;20456;-86
2024/02/09 07:49:14;;;;;;;1.40;0.80;;;24.10;56.30;;;;;;5035084;28;20442;-87
2024/02/09 07:51:41;;;;;;;1.43;0.80;;;24.10;56.40;;;;;;5035256;28;20542;-86
2024/02/09 07:54:08;;;;;;;2.53;1.20;;;24.10;56.40;;;;;;5034762;28;20517;-85
2024/02/09 07:56:34;;;;;;;2.27;0.90;;;24.10;56.50;;;;;;5034368;28;20948;-85
2024/02/09 07:59:01;;;;;;;1.50;0.83;;;24.10;56.50;;;;;;5034473;28;20798;-83
2024/02/09 08:01:29;;;;;;;1.87;1.00;;;24.20;56.60;;;;;;5033933;28;20496;-84
2024/02/09 08:03:57;;;;;;;2.50;0.90;;;24.10;55.80;;;;;;5034098;28;20440;-83
2024/02/09 08:06:26;;;;;;;2.33;1.00;;;24.10;55.90;;;;;;5034174;28;20485;-83
2024/02/09 08:08:53;;;;;;;3.70;1.20;;;24.00;55.90;;;;;;5034059;28;20468;-83
2024/02/09 08:11:20;;;;;;;1.67;0.90;;;24.00;55.90;;;;;;5033913;28;20446;-83
2024/02/09 08:13:50;;;;;;;2.83;0.83;;;24.00;56.00;;;;;;5034381;28;20434;-93
2024/02/09 08:16:17;;;;;;;1.60;0.90;;;24.10;56.10;;;;;;5036036;28;20450;-91
2024/02/09 08:59:32;;;;;;;6.43;2.20;;;24.00;57.60;;;;;;5028045;28;20484;-89
2024/02/09 09:01:59;;;;;;;10.17;2.73;;;24.00;57.50;;;;;;5033242;28;20593;-89
2024/02/09 09:04:27;;;;;;;13.50;3.03;;;24.00;57.50;;;;;;5033285;28;20496;-90
2024/02/09 09:06:54;;;;;;;5.30;2.57;;;24.00;57.50;;;;;;5033104;28;20949;-82
2024/02/09 09:09:21;;;;;;;9.97;2.43;;;24.20;57.60;;;;;;5033195;28;20891;-84
2024/02/09 09:11:48;;;;;;;8.07;2.30;;;24.10;57.50;;;;;;5033281;28;20450;-82
2024/02/09 09:14:16;;;;;;;5.27;2.40;;;24.10;57.50;;;;;;5048686;28;20433;-91
2024/02/09 09:16:44;;;;;;;13.13;3.07;;;24.10;57.60;;;;;;5049922;28;20450;-83
2024/02/09 09:19:12;;;;;;;9.70;3.03;;;24.10;57.70;;;;;;5038397;28;20442;-83
2024/02/09 09:21:41;;;;;;;6.90;2.23;;;24.10;57.90;;;;;;5033001;28;20489;-83
2024/02/09 09:24:09;;;;;;;6.63;2.60;;;24.10;57.90;;;;;;5033100;28;20533;-86
2024/02/09 09:26:36;;;;;;;9.47;3.50;;;24.10;57.80;;;;;;5032971;28;20440;-83
2024/02/09 09:29:04;;;;;;;7.47;3.00;;;24.10;57.90;;;;;;5033182;28;20446;-84
2024/02/09 09:31:31;;;;;;;6.60;2.37;;;24.20;57.90;;;;;;5033008;28;20446;-83
2024/02/09 09:33:59;;;;;;;12.50;2.90;;;24.20;58.00;;;;;;5032933;28;20438;-83
2024/02/09 09:36:27;;;;;;;6.13;2.87;;;24.20;58.00;;;;;;5032811;28;20465;-87
2024/02/09 09:38:53;;;;;;;8.00;3.33;;;24.20;58.20;;;;;;5016213;28;20538;-87
2024/02/09 09:41:20;;;;;;;9.43;2.63;;;24.20;58.20;;;;;;5033492;28;20648;-88
2024/02/09 09:43:49;;;;;;;18.53;2.80;;;24.10;59.10;;;;;;5033245;28;20457;-85
2024/02/09 09:46:21;;;;;;;5.73;2.43;;;24.10;58.70;;;;;;5033365;28;20504;-87
2024/02/09 09:48:52;;;;;;;9.30;3.30;;;24.10;58.30;;;;;;5033324;28;21029;-93
2024/02/09 09:51:21;;;;;;;10.37;3.70;;;24.10;58.20;;;;;;5033741;28;20439;-86
2024/02/09 09:53:52;;;;;;;10.50;3.10;;;24.10;58.40;;;;;;5032621;28;20544;-86
2024/02/09 09:56:22;;;;;;;8.63;3.47;;;24.20;58.90;;;;;;5036052;28;20434;-86
2024/02/09 09:58:50;;;;;;;13.97;3.53;;;24.20;59.00;;;;;;5036802;28;20444;-86
2024/02/09 10:01:17;;;;;;;9.17;3.80;;;24.10;59.00;;;;;;5036552;28;20493;-83
2024/02/09 10:03:45;;;;;;;5.87;2.43;;;24.20;59.20;;;;;;5035580;28;20946;-82
2024/02/09 10:06:12;;;;;;;10.63;2.60;;;24.20;57.90;;;;;;5036141;28;20446;-82
2024/02/09 10:08:40;;;;;;;8.80;1.97;;;24.10;57.30;;;;;;5036051;28;20454;-87
2024/02/09 10:11:07;;;;;;;9.73;2.17;;;24.10;57.70;;;;;;5036598;28;20438;-86
2024/02/09 10:13:35;;;;;;;5.93;3.20;;;24.10;58.20;;;;;;5036401;28;20441;-86
2024/02/09 10:16:03;;;;;;;7.83;2.83;;;24.20;59.10;;;;;;5036412;28;20863;-86
2024/02/09 10:18:32;;;;;;;8.27;3.23;;;24.20;60.00;;;;;;5036753;28;20484;-86
2024/02/09 10:20:59;;;;;;;10.67;3.17;;;24.30;61.60;;;;;;5036262;28;20528;-87
2024/02/09 10:23:29;;;;;;;8.60;3.30;;;24.20;61.90;;;;;;5036184;28;20450;-86
2024/02/09 10:26:03;;;;;;;5.90;3.33;;;24.20;63.60;;;;;;5033342;28;20455;-83
2024/02/09 10:28:31;;;;;;;4.90;2.73;;;24.30;62.40;;;;;;5035377;28;20434;-82
2024/02/09 10:30:59;;;;;;;8.03;3.10;;;24.20;60.40;;;;;;5034909;28;20446;-82
2024/02/09 10:33:27;;;;;;;6.07;2.63;;;24.20;59.00;;;;;;5035121;28;20435;-86
2024/02/09 10:35:55;;;;;;;7.03;2.70;;;24.20;59.20;;;;;;5035508;28;20453;-85
2024/02/09 10:38:22;;;;;;;7.40;2.90;;;24.20;60.90;;;;;;5035539;28;20493;-85
2024/02/09 10:40:54;;;;;;;6.43;2.80;;;24.20;60.70;;;;;;5035295;28;21018;-85
2024/02/09 10:43:25;;;;;;;9.13;2.90;;;24.30;60.70;;;;;;5031485;28;20933;-81
2024/02/09 10:45:53;;;;;;;5.27;2.50;;;24.20;60.80;;;;;;5029752;28;20454;-85
2024/02/09 10:48:23;;;;;;;2.47;1.60;;;24.20;59.50;;;;;;5035701;28;20446;-88
2024/02/09 10:50:54;;;;;;;8.13;3.30;;;24.20;59.50;;;;;;5036638;28;20533;-91
2024/02/09 11:51:07;;;;;;;6.57;2.27;;;24.40;60.00;;;;;;5034154;28;20556;-81
2024/02/09 11:53:34;;;;;;;4.10;1.63;;;24.40;59.90;;;;;;5033295;28;20453;-81
2024/02/09 11:56:01;;;;;;;3.50;1.73;;;24.40;59.00;;;;;;5034282;28;20465;-81
2024/02/09 11:58:29;;;;;;;2.43;1.70;;;24.40;58.50;;;;;;5033200;28;20544;-82
2024/02/09 12:00:57;;;;;;;4.30;1.60;;;24.40;58.60;;;;;;5032696;28;21083;-81
2024/02/09 12:03:24;;;;;;;7.97;1.80;;;24.40;58.50;;;;;;5032972;28;20867;-81
2024/02/09 12:05:51;;;;;;;4.23;1.43;;;24.40;58.40;;;;;;5033499;28;20438;-82
2024/02/09 12:08:20;;;;;;;5.40;2.00;;;24.30;58.40;;;;;;5034070;28;20458;-81
2024/02/09 12:10:46;;;;;;;2.90;1.50;;;24.40;58.40;;;;;;5033721;28;20438;-82
2024/02/09 12:13:14;;;;;;;2.80;1.60;;;24.30;58.30;;;;;;5033842;28;20447;-84
2024/02/09 12:15:40;;;;;;;2.20;1.50;;;24.30;58.10;;;;;;5033745;28;20466;-85
2024/02/09 12:18:08;;;;;;;5.20;1.60;;;24.40;58.50;;;;;;5030679;28;20474;-86
2024/02/09 12:20:36;;;;;;;7.37;2.10;;;24.50;58.50;;;;;;5032980;28;20450;-84
2024/02/09 12:23:04;;;;;;;2.67;1.40;;;24.50;58.50;;;;;;5033922;28;20446;-82
2024/02/09 12:25:37;;;;;;;3.97;2.03;;;24.40;58.60;;;;;;5034224;28;20486;-83
2024/02/09 12:28:05;;;;;;;5.70;1.40;;;24.40;58.80;;;;;;5034372;28;20442;-83
2024/02/09 12:30:32;;;;;;;3.10;1.70;;;24.40;59.00;;;;;;5044952;28;20855;-84
2024/02/09 12:32:59;;;;;;;2.73;1.60;;;24.40;59.20;;;;;;5046489;28;20505;-84
2024/02/09 12:35:28;;;;;;;3.50;1.40;;;24.40;59.20;;;;;;5040592;28;20446;-84
2024/02/09 12:37:56;;;;;;;3.83;1.47;;;24.40;59.30;;;;;;5033303;28;20976;-83
2024/02/09 12:40:23;;;;;;;3.87;1.60;;;24.40;59.30;;;;;;5032716;28;21009;-84
2024/02/09 12:42:53;;;;;;;9.03;2.23;;;24.40;59.50;;;;;;5033153;28;20498;-84
2024/02/09 12:45:28;;;;;;;3.50;1.50;;;24.40;59.70;;;;;;5033504;28;20461;-83
2024/02/09 12:47:57;;;;;;;2.80;1.40;;;24.40;59.90;;;;;;5032855;28;21027;-84
2024/02/09 12:50:26;;;;;;;6.83;1.80;;;24.40;59.20;;;;;;5021436;28;20459;-84
2024/02/09 12:52:54;;;;;;;2.90;1.57;;;24.40;59.40;;;;;;5030473;28;20462;-85
2024/02/09 12:55:21;;;;;;;5.80;1.20;;;24.40;59.10;;;;;;5031320;28;20450;-85
2024/02/09 12:57:49;;;;;;;3.90;1.33;;;24.40;59.40;;;;;;5032201;28;20426;-85
2024/02/09 13:00:18;;;;;;;4.73;1.50;;;24.40;59.40;;;;;;5032549;28;20488;-85
2024/02/09 13:02:45;;;;;;;4.93;1.70;;;24.40;59.40;;;;;;5032950;28;20489;-85
2024/02/09 13:05:12;;;;;;;2.90;1.50;;;24.40;59.40;;;;;;5033263;28;20449;-86
2024/02/09 13:07:38;;;;;;;6.87;1.67;;;24.40;59.50;;;;;;5032403;28;20462;-85
2024/02/09 13:10:07;;;;;;;2.83;1.40;;;24.40;59.30;;;;;;5032489;28;20446;-84
2024/02/09 13:12:37;;;;;;;3.97;1.43;;;24.40;59.40;;;;;;5032592;28;20521;-85
2024/02/09 13:15:05;;;;;;;3.87;1.80;;;24.40;59.30;;;;;;5032315;28;20426;-85
2024/02/09 13:17:35;;;;;;;4.40;1.20;;;24.50;59.30;;;;;;5032654;28;20499;-86
2024/02/09 13:20:05;;;;;;;3.70;1.33;;;24.40;59.30;;;;;;5032719;28;20438;-86
2024/02/09 13:22:32;;;;;;;5.13;1.57;;;24.40;59.30;;;;;;5032732;28;21061;-85
2024/02/09 13:24:59;;;;;;;4.43;1.60;;;24.40;59.20;;;;;;5033117;28;20442;-85
2024/02/09 13:27:29;;;;;;;6.07;2.00;;;24.50;59.30;;;;;;5033072;28;20438;-86
2024/02/09 13:29:56;;;;;;;5.77;1.90;;;24.40;59.20;;;;;;5038495;28;20481;-85
2024/02/09 13:32:24;;;;;;;4.93;1.67;;;24.50;59.30;;;;;;5040431;28;20442;-84
2024/02/09 13:34:58;;;;;;;4.30;1.93;;;24.50;59.30;;;;;;5041074;28;20454;-84
2024/02/09 13:37:25;;;;;;;4.23;1.40;;;24.50;59.20;;;;;;5039491;28;20469;-85
2024/02/09 13:39:53;;;;;;;3.00;1.57;;;24.40;59.10;;;;;;5042162;28;20438;-85
2024/02/09 13:42:21;;;;;;;3.70;1.60;;;24.50;59.20;;;;;;5041259;28;20535;-84
2024/02/09 13:44:48;;;;;;;7.13;1.77;;;24.50;59.20;;;;;;5040579;28;20470;-86
2024/02/09 13:47:15;;;;;;;5.20;1.97;;;24.50;59.20;;;;;;5024215;28;20537;-85
2024/02/09 13:49:41;;;;;;;4.23;1.80;;;24.50;59.10;;;;;;5041167;28;20433;-85
2024/02/09 13:52:09;;;;;;;4.57;2.00;;;24.50;59.20;;;;;;5036683;28;20438;-85
2024/02/09 13:54:38;;;;;;;6.10;1.80;;;24.50;59.10;;;;;;5036505;28;20439;-85
2024/02/09 13:57:05;;;;;;;4.20;1.77;;;24.50;59.10;;;;;;5036550;28;20442;-85
2024/02/09 13:59:32;;;;;;;4.47;2.10;;;24.50;59.10;;;;;;5036390;28;20796;-85
2024/02/09 14:01:59;;;;;;;3.30;1.80;;;24.50;59.10;;;;;;5036601;28;20507;-86
2024/02/09 14:04:25;;;;;;;4.10;1.73;;;24.50;59.10;;;;;;5026407;28;20482;-84
2024/02/09 14:06:52;;;;;;;3.53;1.60;;;24.50;59.10;;;;;;5036184;28;20450;-85
2024/02/09 14:09:20;;;;;;;4.10;1.60;;;24.50;58.60;;;;;;5034724;28;20925;-86
2024/02/09 14:11:47;;;;;;;3.20;1.30;;;24.50;58.90;;;;;;5035067;28;20454;-83
2024/02/09 14:14:14;;;;;;;4.17;1.90;;;24.50;58.80;;;;;;5034101;28;20449;-83
2024/02/09 14:16:41;;;;;;;2.20;1.23;;;24.40;58.90;;;;;;5034985;28;20440;-83
2024/02/09 14:19:07;;;;;;;3.00;1.67;;;24.50;59.00;;;;;;5035581;28;20439;-84
2024/02/09 14:21:34;;;;;;;5.13;1.80;;;24.40;59.00;;;;;;5035720;28;20478;-86
2024/02/09 14:24:01;;;;;;;3.30;1.83;;;24.50;59.10;;;;;;5035628;28;20952;-84
2024/02/09 14:26:29;;;;;;;3.40;2.00;;;24.40;59.00;;;;;;5034753;28;20807;-84
2024/02/09 14:29:00;;;;;;;7.10;2.07;;;24.40;58.90;;;;;;5035866;28;20948;-83
2024/02/09 14:31:27;;;;;;;3.43;2.03;;;24.40;59.00;;;;;;5035259;28;20806;-85
2024/02/09 14:33:54;;;;;;;2.97;1.40;;;24.50;59.00;;;;;;5034683;28;20438;-83
2024/02/09 14:36:21;;;;;;;4.00;2.03;;;24.50;59.00;;;;;;5035164;28;20427;-83
2024/02/09 14:38:47;;;;;;;4.03;1.77;;;24.50;59.00;;;;;;5035711;28;20533;-83
2024/02/09 14:41:14;;;;;;;3.80;1.80;;;24.50;59.60;;;;;;5034417;28;20434;-83
2024/02/09 14:43:42;;;;;;;4.40;2.10;;;24.50;59.10;;;;;;5035466;28;20469;-83
2024/02/09 14:46:10;;;;;;;3.33;1.60;;;24.50;59.10;;;;;;5035776;28;20434;-84
2024/02/09 14:48:37;;;;;;;2.47;1.77;;;24.50;59.00;;;;;;5036133;28;20940;-84
2024/02/09 14:51:05;;;;;;;3.00;1.90;;;24.40;59.00;;;;;;5036293;28;20529;-84
2024/02/09 14:53:32;;;;;;;3.50;1.60;;;24.50;59.00;;;;;;5038075;28;20801;-85
2024/02/09 14:55:58;;;;;;;2.90;1.60;;;24.40;59.00;;;;;;5036200;28;20515;-84
2024/02/09 14:58:25;;;;;;;2.30;1.30;;;24.40;59.00;;;;;;5035703;28;20448;-84
2024/02/09 15:00:54;;;;;;;2.53;1.60;;;24.40;59.00;;;;;;5035503;28;20432;-84
2024/02/09 15:03:22;;;;;;;3.20;1.50;;;24.40;59.00;;;;;;5035409;28;20482;-85
2024/02/09 15:05:49;;;;;;;4.10;1.90;;;24.40;59.00;;;;;;5035848;28;20508;-84
2024/02/09 15:08:16;;;;;;;7.23;1.67;;;24.50;59.10;;;;;;5037082;28;20461;-84
2024/02/09 15:10:43;;;;;;;2.73;1.57;;;24.40;59.00;;;;;;5035584;28;20506;-83
2024/02/09 15:13:12;;;;;;;3.50;1.53;;;24.50;59.00;;;;;;5038011;28;20449;-84
2024/02/09 15:15:42;;;;;;;4.03;1.57;;;24.40;58.90;;;;;;5035146;28;20795;-84
2024/02/09 15:18:10;;;;;;;3.00;2.00;;;24.50;59.00;;;;;;5046354;28;20418;-82
2024/02/09 15:20:38;;;;;;;2.33;1.33;;;24.50;58.60;;;;;;5057230;28;20445;-83
2024/02/09 15:23:05;;;;;;;1.90;1.10;;;24.50;57.70;;;;;;5051303;28;20481;-81
2024/02/09 15:25:33;;;;;;;2.80;1.27;;;24.40;57.50;;;;;;5037748;28;20438;-81
2024/02/09 15:28:00;;;;;;;2.07;1.30;;;24.40;57.60;;;;;;5036435;28;20489;-82
2024/02/09 15:30:27;;;;;;;2.03;1.40;;;24.40;57.10;;;;;;5036885;28;20846;-82
2024/02/09 15:32:54;;;;;;;4.97;2.10;;;24.40;57.80;;;;;;5036460;28;20521;-85
2024/02/09 15:35:22;;;;;;;2.83;1.37;;;24.40;58.70;;;;;;5036595;28;20532;-83
2024/02/09 15:37:49;;;;;;;3.17;1.40;;;24.40;58.80;;;;;;5036160;28;20489;-85
2024/02/09 15:40:21;;;;;;;2.33;1.30;;;24.50;59.00;;;;;;5035651;28;20533;-83
2024/02/09 15:42:48;;;;;;;14.03;2.20;;;24.40;59.10;;;;;;5036033;28;20488;-83
2024/02/09 15:45:15;;;;;;;2.60;1.30;;;24.40;59.10;;;;;;5036962;28;20442;-86
2024/02/09 15:47:43;;;;;;;5.20;1.50;;;24.40;59.10;;;;;;5036235;28;20445;-82
2024/02/09 15:50:10;;;;;;;3.50;1.30;;;24.40;59.10;;;;;;5036537;28;20441;-82
2024/02/09 15:52:38;;;;;;;3.67;1.60;;;24.40;59.20;;;;;;5036394;28;20509;-87
2024/02/09 15:55:07;;;;;;;2.20;1.30;;;24.40;59.80;;;;;;5035328;28;20456;-83
2024/02/09 15:57:35;;;;;;;2.57;1.37;;;24.40;59.30;;;;;;5038189;28;20434;-82
2024/02/09 16:00:04;;;;;;;2.93;1.60;;;24.40;59.30;;;;;;5036401;28;20447;-84
2024/02/09 16:02:32;;;;;;;3.10;1.40;;;24.40;59.30;;;;;;5035872;28;20996;-83
2024/02/09 16:05:00;;;;;;;3.77;1.60;;;24.40;59.20;;;;;;5036921;28;20490;-83
2024/02/09 16:07:27;;;;;;;7.47;1.67;;;24.40;59.30;;;;;;5036823;28;20462;-83
2024/02/09 16:09:55;;;;;;;3.07;1.70;;;24.50;59.30;;;;;;5036925;28;20521;-83
2024/02/09 16:12:22;;;;;;;3.17;1.87;;;24.50;59.30;;;;;;5037224;28;20525;-83
2024/02/09 16:14:49;;;;;;;2.53;1.60;;;24.50;59.20;;;;;;5018853;28;20444;-83